sensor_id;sensor_type;location;lat;lon;timestamp;P1;durP1;ratioP1;P2;durP2;ratioP2
62332;SDS011;48624;49.812;8.562;2023-05-29T00:02:04;52.03;;;49.90;;
62332;SDS011;48624;49.812;8.562;2023-05-29T00:04:31;46.13;;;44.22;;
62332;SDS011;48624;49.812;8.562;2023-05-29T00:06:56;46.88;;;44.97;;
62332;SDS011;48624;49.812;8.562;2023-05-29T00:09:22;58.38;;;56.10;;
62332;SDS011;48624;49.812;8.562;2023-05-29T00:11:47;62.78;;;60.30;;
62332;SDS011;48624;49.812;8.562;2023-05-29T00:14:16;56.90;;;54.80;;
62332;SDS011;48624;49.812;8.562;2023-05-29T00:16:44;76.88;;;74.03;;
62332;SDS011;48624;49.812;8.562;2023-05-29T00:19:11;73.20;;;70.70;;
62332;SDS011;48624;49.812;8.562;2023-05-29T00:21:37;84.50;;;81.28;;
62332;SDS011;48624;49.812;8.562;2023-05-29T00:24:02;92.30;;;88.97;;
62332;SDS011;48624;49.812;8.562;2023-05-29T00:26:27;105.88;;;101.95;;
62332;SDS011;48624;49.812;8.562;2023-05-29T00:28:52;108.10;;;103.93;;
62332;SDS011;48624;49.812;8.562;2023-05-29T00:31:18;99.47;;;95.85;;
62332;SDS011;48624;49.812;8.562;2023-05-29T00:33:43;105.80;;;102.07;;
62332;SDS011;48624;49.812;8.562;2023-05-29T00:36:09;100.63;;;96.90;;
62332;SDS011;48624;49.812;8.562;2023-05-29T00:38:35;96.97;;;93.53;;
62332;SDS011;48624;49.812;8.562;2023-05-29T00:41:00;104.63;;;100.75;;
62332;SDS011;48624;49.812;8.562;2023-05-29T00:43:27;90.55;;;87.35;;
62332;SDS011;48624;49.812;8.562;2023-05-29T00:45:52;92.47;;;89.05;;
62332;SDS011;48624;49.812;8.562;2023-05-29T00:48:18;96.63;;;93.22;;
62332;SDS011;48624;49.812;8.562;2023-05-29T00:50:43;109.00;;;105.07;;
62332;SDS011;48624;49.812;8.562;2023-05-29T00:53:09;92.07;;;88.40;;
62332;SDS011;48624;49.812;8.562;2023-05-29T00:55:34;94.32;;;90.97;;
62332;SDS011;48624;49.812;8.562;2023-05-29T00:58:00;93.57;;;90.07;;
62332;SDS011;48624;49.812;8.562;2023-05-29T01:00:26;94.47;;;91.03;;
62332;SDS011;48624;49.812;8.562;2023-05-29T01:02:51;95.63;;;92.20;;
62332;SDS011;48624;49.812;8.562;2023-05-29T01:05:17;101.45;;;97.82;;
62332;SDS011;48624;49.812;8.562;2023-05-29T01:07:44;101.25;;;97.45;;
62332;SDS011;48624;49.812;8.562;2023-05-29T01:10:09;110.55;;;106.65;;
62332;SDS011;48624;49.812;8.562;2023-05-29T01:15:52;92.93;;;89.53;;
62332;SDS011;48624;49.812;8.562;2023-05-29T01:18:38;96.72;;;93.35;;
62332;SDS011;48624;49.812;8.562;2023-05-29T01:23:53;120.95;;;116.45;;
62332;SDS011;48624;49.812;8.562;2023-05-29T01:29:21;141.80;;;136.65;;
62332;SDS011;48624;49.812;8.562;2023-05-29T01:31:50;158.60;;;153.00;;
62332;SDS011;48624;49.812;8.562;2023-05-29T01:34:17;137.98;;;133.07;;
62332;SDS011;48624;49.812;8.562;2023-05-29T01:36:42;125.80;;;121.30;;
62332;SDS011;48624;49.812;8.562;2023-05-29T01:39:08;109.95;;;106.13;;
62332;SDS011;48624;49.812;8.562;2023-05-29T01:41:34;129.90;;;125.10;;
62332;SDS011;48624;49.812;8.562;2023-05-29T01:44:01;119.10;;;114.68;;
62332;SDS011;48624;49.812;8.562;2023-05-29T01:46:33;125.82;;;121.40;;
62332;SDS011;48624;49.812;8.562;2023-05-29T01:49:00;108.35;;;104.47;;
62332;SDS011;48624;49.812;8.562;2023-05-29T01:51:26;118.45;;;113.82;;
62332;SDS011;48624;49.812;8.562;2023-05-29T01:53:51;115.70;;;111.63;;
62332;SDS011;48624;49.812;8.562;2023-05-29T01:56:17;145.82;;;140.68;;
62332;SDS011;48624;49.812;8.562;2023-05-29T01:58:43;143.20;;;138.18;;
62332;SDS011;48624;49.812;8.562;2023-05-29T02:01:09;129.02;;;124.60;;
62332;SDS011;48624;49.812;8.562;2023-05-29T02:03:34;142.05;;;136.82;;
62332;SDS011;48624;49.812;8.562;2023-05-29T02:06:00;140.90;;;135.85;;
62332;SDS011;48624;49.812;8.562;2023-05-29T02:08:26;120.70;;;116.45;;
62332;SDS011;48624;49.812;8.562;2023-05-29T02:10:51;137.70;;;132.88;;
62332;SDS011;48624;49.812;8.562;2023-05-29T02:13:16;119.97;;;115.57;;
62332;SDS011;48624;49.812;8.562;2023-05-29T02:15:42;133.57;;;128.93;;
62332;SDS011;48624;49.812;8.562;2023-05-29T02:18:12;143.43;;;138.35;;
62332;SDS011;48624;49.812;8.562;2023-05-29T02:20:39;179.73;;;173.23;;
62332;SDS011;48624;49.812;8.562;2023-05-29T02:23:05;169.93;;;163.73;;
62332;SDS011;48624;49.812;8.562;2023-05-29T02:25:30;202.98;;;195.90;;
62332;SDS011;48624;49.812;8.562;2023-05-29T02:27:55;193.15;;;186.35;;
62332;SDS011;48624;49.812;8.562;2023-05-29T02:30:21;250.68;;;242.05;;
62332;SDS011;48624;49.812;8.562;2023-05-29T02:32:46;245.95;;;237.30;;
62332;SDS011;48624;49.812;8.562;2023-05-29T02:35:12;234.52;;;226.20;;
62332;SDS011;48624;49.812;8.562;2023-05-29T02:37:42;220.88;;;212.90;;
62332;SDS011;48624;49.812;8.562;2023-05-29T02:40:07;230.93;;;222.90;;
62332;SDS011;48624;49.812;8.562;2023-05-29T02:42:33;253.02;;;244.20;;
62332;SDS011;48624;49.812;8.562;2023-05-29T02:44:59;226.68;;;218.85;;
62332;SDS011;48624;49.812;8.562;2023-05-29T02:47:24;260.73;;;251.50;;
62332;SDS011;48624;49.812;8.562;2023-05-29T02:49:49;245.35;;;236.93;;
62332;SDS011;48624;49.812;8.562;2023-05-29T02:52:15;217.20;;;209.55;;
62332;SDS011;48624;49.812;8.562;2023-05-29T02:54:40;214.15;;;206.85;;
62332;SDS011;48624;49.812;8.562;2023-05-29T02:57:05;262.92;;;253.88;;
62332;SDS011;48624;49.812;8.562;2023-05-29T02:59:31;248.65;;;239.65;;
62332;SDS011;48624;49.812;8.562;2023-05-29T03:01:57;263.80;;;254.70;;
62332;SDS011;48624;49.812;8.562;2023-05-29T03:04:22;245.90;;;237.32;;
62332;SDS011;48624;49.812;8.562;2023-05-29T03:06:47;224.63;;;216.73;;
62332;SDS011;48624;49.812;8.562;2023-05-29T03:09:13;276.65;;;266.95;;
62332;SDS011;48624;49.812;8.562;2023-05-29T03:11:40;277.40;;;267.88;;
62332;SDS011;48624;49.812;8.562;2023-05-29T03:14:05;296.15;;;286.10;;
62332;SDS011;48624;49.812;8.562;2023-05-29T03:16:31;283.58;;;273.85;;
62332;SDS011;48624;49.812;8.562;2023-05-29T03:18:56;244.60;;;236.10;;
62332;SDS011;48624;49.812;8.562;2023-05-29T03:21:22;258.40;;;249.40;;
62332;SDS011;48624;49.812;8.562;2023-05-29T03:23:47;282.77;;;272.85;;
62332;SDS011;48624;49.812;8.562;2023-05-29T03:26:12;296.20;;;285.98;;
62332;SDS011;48624;49.812;8.562;2023-05-29T03:28:38;269.05;;;259.38;;
62332;SDS011;48624;49.812;8.562;2023-05-29T03:31:04;326.98;;;315.63;;
62332;SDS011;48624;49.812;8.562;2023-05-29T03:33:30;307.83;;;296.92;;
62332;SDS011;48624;49.812;8.562;2023-05-29T03:35:55;296.60;;;286.13;;
62332;SDS011;48624;49.812;8.562;2023-05-29T03:38:21;321.38;;;310.15;;
62332;SDS011;48624;49.812;8.562;2023-05-29T03:40:46;280.23;;;270.30;;
62332;SDS011;48624;49.812;8.562;2023-05-29T03:43:11;336.13;;;324.13;;
62332;SDS011;48624;49.812;8.562;2023-05-29T03:45:37;324.05;;;312.83;;
62332;SDS011;48624;49.812;8.562;2023-05-29T03:48:02;308.55;;;297.85;;
62332;SDS011;48624;49.812;8.562;2023-05-29T03:50:27;319.95;;;308.85;;
62332;SDS011;48624;49.812;8.562;2023-05-29T03:52:52;320.13;;;308.88;;
62332;SDS011;48624;49.812;8.562;2023-05-29T03:55:18;333.48;;;321.80;;
62332;SDS011;48624;49.812;8.562;2023-05-29T03:57:43;319.65;;;308.77;;
62332;SDS011;48624;49.812;8.562;2023-05-29T04:00:09;319.05;;;307.88;;
62332;SDS011;48624;49.812;8.562;2023-05-29T04:02:36;312.55;;;301.73;;
62332;SDS011;48624;49.812;8.562;2023-05-29T04:05:07;330.05;;;318.75;;
62332;SDS011;48624;49.812;8.562;2023-05-29T04:07:34;344.67;;;332.63;;
62332;SDS011;48624;49.812;8.562;2023-05-29T04:10:01;349.67;;;337.40;;
62332;SDS011;48624;49.812;8.562;2023-05-29T04:12:26;346.00;;;333.83;;
62332;SDS011;48624;49.812;8.562;2023-05-29T04:14:52;353.45;;;340.92;;
62332;SDS011;48624;49.812;8.562;2023-05-29T04:17:17;339.45;;;327.42;;
62332;SDS011;48624;49.812;8.562;2023-05-29T04:19:43;371.77;;;358.58;;
62332;SDS011;48624;49.812;8.562;2023-05-29T04:22:08;332.65;;;321.10;;
62332;SDS011;48624;49.812;8.562;2023-05-29T04:24:34;346.55;;;334.17;;
62332;SDS011;48624;49.812;8.562;2023-05-29T04:27:00;342.63;;;330.83;;
62332;SDS011;48624;49.812;8.562;2023-05-29T04:29:26;340.23;;;328.42;;
62332;SDS011;48624;49.812;8.562;2023-05-29T04:31:53;316.17;;;305.05;;
62332;SDS011;48624;49.812;8.562;2023-05-29T04:34:20;338.77;;;326.98;;
62332;SDS011;48624;49.812;8.562;2023-05-29T04:36:46;334.08;;;322.55;;
62332;SDS011;48624;49.812;8.562;2023-05-29T04:39:12;357.27;;;344.80;;
62332;SDS011;48624;49.812;8.562;2023-05-29T04:41:37;345.38;;;333.27;;
62332;SDS011;48624;49.812;8.562;2023-05-29T04:44:02;342.85;;;330.83;;
62332;SDS011;48624;49.812;8.562;2023-05-29T04:46:29;340.02;;;327.90;;
62332;SDS011;48624;49.812;8.562;2023-05-29T04:48:55;360.38;;;347.67;;
62332;SDS011;48624;49.812;8.562;2023-05-29T04:51:21;355.73;;;343.20;;
62332;SDS011;48624;49.812;8.562;2023-05-29T04:53:47;356.75;;;344.02;;
62332;SDS011;48624;49.812;8.562;2023-05-29T04:56:13;362.45;;;349.70;;
62332;SDS011;48624;49.812;8.562;2023-05-29T04:58:40;342.15;;;330.20;;
62332;SDS011;48624;49.812;8.562;2023-05-29T05:01:06;348.25;;;336.15;;
62332;SDS011;48624;49.812;8.562;2023-05-29T05:03:33;355.58;;;343.17;;
62332;SDS011;48624;49.812;8.562;2023-05-29T05:06:02;365.08;;;352.45;;
62332;SDS011;48624;49.812;8.562;2023-05-29T05:08:29;359.90;;;347.08;;
62332;SDS011;48624;49.812;8.562;2023-05-29T05:10:54;360.13;;;347.40;;
62332;SDS011;48624;49.812;8.562;2023-05-29T05:13:20;388.25;;;374.58;;
62332;SDS011;48624;49.812;8.562;2023-05-29T05:15:45;378.23;;;364.42;;
62332;SDS011;48624;49.812;8.562;2023-05-29T05:18:11;390.85;;;377.05;;
62332;SDS011;48624;49.812;8.562;2023-05-29T05:20:36;372.63;;;359.42;;
62332;SDS011;48624;49.812;8.562;2023-05-29T05:23:01;364.38;;;351.45;;
62332;SDS011;48624;49.812;8.562;2023-05-29T05:25:27;383.23;;;369.70;;
62332;SDS011;48624;49.812;8.562;2023-05-29T05:27:52;377.02;;;363.45;;
62332;SDS011;48624;49.812;8.562;2023-05-29T05:30:18;386.45;;;372.63;;
62332;SDS011;48624;49.812;8.562;2023-05-29T05:32:43;313.50;;;302.45;;
62332;SDS011;48624;49.812;8.562;2023-05-29T05:35:08;303.25;;;292.52;;
62332;SDS011;48624;49.812;8.562;2023-05-29T05:37:36;362.30;;;349.60;;
62332;SDS011;48624;49.812;8.562;2023-05-29T05:40:02;302.30;;;291.40;;
62332;SDS011;48624;49.812;8.562;2023-05-29T05:42:28;271.48;;;261.92;;
62332;SDS011;48624;49.812;8.562;2023-05-29T05:44:54;310.65;;;299.77;;
62332;SDS011;48624;49.812;8.562;2023-05-29T05:47:19;298.90;;;288.42;;
62332;SDS011;48624;49.812;8.562;2023-05-29T05:49:44;272.65;;;263.08;;
62332;SDS011;48624;49.812;8.562;2023-05-29T05:52:10;319.27;;;307.98;;
62332;SDS011;48624;49.812;8.562;2023-05-29T05:54:35;344.27;;;331.67;;
62332;SDS011;48624;49.812;8.562;2023-05-29T05:57:00;311.10;;;299.90;;
62332;SDS011;48624;49.812;8.562;2023-05-29T05:59:26;316.58;;;305.77;;
62332;SDS011;48624;49.812;8.562;2023-05-29T06:01:51;288.38;;;278.05;;
62332;SDS011;48624;49.812;8.562;2023-05-29T06:04:16;325.65;;;313.80;;
62332;SDS011;48624;49.812;8.562;2023-05-29T06:06:43;198.75;;;191.77;;
62332;SDS011;48624;49.812;8.562;2023-05-29T06:09:09;141.70;;;136.75;;
62332;SDS011;48624;49.812;8.562;2023-05-29T06:11:36;124.85;;;120.30;;
62332;SDS011;48624;49.812;8.562;2023-05-29T06:14:02;130.05;;;125.53;;
62332;SDS011;48624;49.812;8.562;2023-05-29T06:16:28;115.38;;;111.20;;
62332;SDS011;48624;49.812;8.562;2023-05-29T06:18:53;128.88;;;124.22;;
62332;SDS011;48624;49.812;8.562;2023-05-29T06:21:18;118.53;;;114.00;;
62332;SDS011;48624;49.812;8.562;2023-05-29T06:23:44;129.18;;;124.45;;
62332;SDS011;48624;49.812;8.562;2023-05-29T06:26:09;125.93;;;121.47;;
62332;SDS011;48624;49.812;8.562;2023-05-29T06:28:36;122.28;;;118.05;;
62332;SDS011;48624;49.812;8.562;2023-05-29T06:31:03;118.82;;;114.68;;
62332;SDS011;48624;49.812;8.562;2023-05-29T06:33:28;124.70;;;120.35;;
62332;SDS011;48624;49.812;8.562;2023-05-29T06:35:54;109.88;;;105.72;;
62332;SDS011;48624;49.812;8.562;2023-05-29T06:38:20;120.60;;;116.10;;
62332;SDS011;48624;49.812;8.562;2023-05-29T06:40:45;113.28;;;109.30;;
62332;SDS011;48624;49.812;8.562;2023-05-29T06:43:10;89.28;;;86.13;;
62332;SDS011;48624;49.812;8.562;2023-05-29T06:45:36;97.60;;;94.18;;
62332;SDS011;48624;49.812;8.562;2023-05-29T06:48:01;96.97;;;93.53;;
62332;SDS011;48624;49.812;8.562;2023-05-29T06:50:27;82.13;;;79.22;;
62332;SDS011;48624;49.812;8.562;2023-05-29T06:52:52;84.50;;;81.38;;
62332;SDS011;48624;49.812;8.562;2023-05-29T06:55:17;72.68;;;69.80;;
62332;SDS011;48624;49.812;8.562;2023-05-29T06:57:43;62.15;;;59.88;;
62332;SDS011;48624;49.812;8.562;2023-05-29T07:00:10;35.13;;;33.70;;
62332;SDS011;48624;49.812;8.562;2023-05-29T07:02:36;26.00;;;24.88;;
62332;SDS011;48624;49.812;8.562;2023-05-29T07:05:01;16.45;;;15.65;;
62332;SDS011;48624;49.812;8.562;2023-05-29T07:07:26;17.98;;;16.65;;
62332;SDS011;48624;49.812;8.562;2023-05-29T07:09:52;13.85;;;13.05;;
62332;SDS011;48624;49.812;8.562;2023-05-29T07:12:17;9.85;;;9.25;;
62332;SDS011;48624;49.812;8.562;2023-05-29T07:14:42;14.85;;;14.05;;
62332;SDS011;48624;49.812;8.562;2023-05-29T07:17:08;7.57;;;7.07;;
62332;SDS011;48624;49.812;8.562;2023-05-29T07:19:33;5.90;;;5.40;;
62332;SDS011;48624;49.812;8.562;2023-05-29T07:21:59;7.32;;;6.00;;
62332;SDS011;48624;49.812;8.562;2023-05-29T07:24:24;5.80;;;4.85;;
62332;SDS011;48624;49.812;8.562;2023-05-29T07:26:50;6.18;;;3.42;;
62332;SDS011;48624;49.812;8.562;2023-05-29T07:29:15;4.88;;;3.13;;
62332;SDS011;48624;49.812;8.562;2023-05-29T07:31:44;4.80;;;2.80;;
62332;SDS011;48624;49.812;8.562;2023-05-29T07:34:10;3.28;;;2.83;;
62332;SDS011;48624;49.812;8.562;2023-05-29T07:36:35;7.45;;;2.60;;
62332;SDS011;48624;49.812;8.562;2023-05-29T07:39:01;7.50;;;3.08;;
62332;SDS011;48624;49.812;8.562;2023-05-29T07:41:27;4.53;;;3.03;;
62332;SDS011;48624;49.812;8.562;2023-05-29T07:43:53;4.35;;;2.95;;
62332;SDS011;48624;49.812;8.562;2023-05-29T07:46:20;4.25;;;1.80;;
62332;SDS011;48624;49.812;8.562;2023-05-29T07:48:45;5.47;;;1.88;;
62332;SDS011;48624;49.812;8.562;2023-05-29T07:51:11;4.68;;;2.20;;
62332;SDS011;48624;49.812;8.562;2023-05-29T07:53:37;3.22;;;1.65;;
62332;SDS011;48624;49.812;8.562;2023-05-29T07:56:03;5.25;;;1.88;;
62332;SDS011;48624;49.812;8.562;2023-05-29T07:58:29;3.33;;;1.90;;
62332;SDS011;48624;49.812;8.562;2023-05-29T08:00:54;6.70;;;2.03;;
62332;SDS011;48624;49.812;8.562;2023-05-29T08:03:19;2.80;;;1.90;;
62332;SDS011;48624;49.812;8.562;2023-05-29T08:05:44;5.40;;;2.70;;
62332;SDS011;48624;49.812;8.562;2023-05-29T08:08:10;4.43;;;2.33;;
62332;SDS011;48624;49.812;8.562;2023-05-29T08:10:39;3.85;;;2.22;;
62332;SDS011;48624;49.812;8.562;2023-05-29T08:13:04;3.80;;;2.40;;
62332;SDS011;48624;49.812;8.562;2023-05-29T08:15:29;3.30;;;2.40;;
62332;SDS011;48624;49.812;8.562;2023-05-29T08:17:56;7.75;;;2.25;;
62332;SDS011;48624;49.812;8.562;2023-05-29T08:20:21;5.80;;;2.05;;
62332;SDS011;48624;49.812;8.562;2023-05-29T08:22:47;5.28;;;2.67;;
62332;SDS011;48624;49.812;8.562;2023-05-29T08:25:12;5.00;;;1.88;;
62332;SDS011;48624;49.812;8.562;2023-05-29T08:27:37;5.72;;;2.38;;
62332;SDS011;48624;49.812;8.562;2023-05-29T08:30:03;2.80;;;2.03;;
62332;SDS011;48624;49.812;8.562;2023-05-29T08:32:29;5.00;;;2.38;;
62332;SDS011;48624;49.812;8.562;2023-05-29T08:34:54;4.88;;;2.25;;
62332;SDS011;48624;49.812;8.562;2023-05-29T08:37:20;4.38;;;2.05;;
62332;SDS011;48624;49.812;8.562;2023-05-29T08:39:45;4.55;;;2.60;;
62332;SDS011;48624;49.812;8.562;2023-05-29T08:42:12;3.42;;;2.03;;
62332;SDS011;48624;49.812;8.562;2023-05-29T08:44:42;4.45;;;1.70;;
62332;SDS011;48624;49.812;8.562;2023-05-29T08:47:13;2.88;;;1.65;;
62332;SDS011;48624;49.812;8.562;2023-05-29T08:49:45;4.55;;;2.15;;
62332;SDS011;48624;49.812;8.562;2023-05-29T08:52:16;6.72;;;2.70;;
62332;SDS011;48624;49.812;8.562;2023-05-29T08:54:43;3.42;;;2.42;;
62332;SDS011;48624;49.812;8.562;2023-05-29T08:57:10;5.22;;;2.30;;
62332;SDS011;48624;49.812;8.562;2023-05-29T08:59:37;3.95;;;1.90;;
62332;SDS011;48624;49.812;8.562;2023-05-29T09:02:06;5.15;;;2.17;;
62332;SDS011;48624;49.812;8.562;2023-05-29T09:04:32;3.92;;;2.17;;
62332;SDS011;48624;49.812;8.562;2023-05-29T09:06:58;3.90;;;2.08;;
62332;SDS011;48624;49.812;8.562;2023-05-29T09:09:24;8.93;;;2.30;;
62332;SDS011;48624;49.812;8.562;2023-05-29T09:11:52;5.28;;;2.10;;
62332;SDS011;48624;49.812;8.562;2023-05-29T09:14:34;4.65;;;2.03;;
62332;SDS011;48624;49.812;8.562;2023-05-29T09:17:03;6.53;;;2.30;;
62332;SDS011;48624;49.812;8.562;2023-05-29T09:19:30;3.47;;;2.17;;
62332;SDS011;48624;49.812;8.562;2023-05-29T09:22:00;3.85;;;2.45;;
62332;SDS011;48624;49.812;8.562;2023-05-29T09:24:27;3.85;;;2.92;;
62332;SDS011;48624;49.812;8.562;2023-05-29T09:26:53;3.45;;;3.00;;
62332;SDS011;48624;49.812;8.562;2023-05-29T09:29:18;3.22;;;2.15;;
62332;SDS011;48624;49.812;8.562;2023-05-29T09:31:47;5.57;;;2.60;;
62332;SDS011;48624;49.812;8.562;2023-05-29T09:34:12;2.75;;;1.98;;
62332;SDS011;48624;49.812;8.562;2023-05-29T09:36:38;3.75;;;2.00;;
62332;SDS011;48624;49.812;8.562;2023-05-29T09:39:03;4.45;;;2.20;;
62332;SDS011;48624;49.812;8.562;2023-05-29T09:41:29;3.50;;;2.20;;
62332;SDS011;48624;49.812;8.562;2023-05-29T09:43:56;3.63;;;2.20;;
62332;SDS011;48624;49.812;8.562;2023-05-29T09:46:24;4.53;;;2.33;;
62332;SDS011;48624;49.812;8.562;2023-05-29T09:48:50;4.30;;;3.90;;
62332;SDS011;48624;49.812;8.562;2023-05-29T09:51:21;16.77;;;15.95;;
62332;SDS011;48624;49.812;8.562;2023-05-29T09:53:48;25.70;;;24.38;;
62332;SDS011;48624;49.812;8.562;2023-05-29T09:56:15;34.90;;;33.20;;
62332;SDS011;48624;49.812;8.562;2023-05-29T09:58:42;25.58;;;24.58;;
62332;SDS011;48624;49.812;8.562;2023-05-29T10:01:12;52.35;;;50.38;;
62332;SDS011;48624;49.812;8.562;2023-05-29T10:03:38;96.82;;;93.22;;
62332;SDS011;48624;49.812;8.562;2023-05-29T10:06:03;119.78;;;115.45;;
62332;SDS011;48624;49.812;8.562;2023-05-29T10:08:31;117.53;;;113.25;;
62332;SDS011;48624;49.812;8.562;2023-05-29T10:10:59;186.48;;;179.73;;
62332;SDS011;48624;49.812;8.562;2023-05-29T10:13:34;343.73;;;331.38;;
62332;SDS011;48624;49.812;8.562;2023-05-29T10:16:03;322.50;;;310.95;;
62332;SDS011;48624;49.812;8.562;2023-05-29T10:18:35;197.07;;;189.93;;
62332;SDS011;48624;49.812;8.562;2023-05-29T10:21:03;211.38;;;203.82;;
62332;SDS011;48624;49.812;8.562;2023-05-29T10:23:31;117.22;;;113.13;;
62332;SDS011;48624;49.812;8.562;2023-05-29T10:25:59;177.68;;;171.32;;
62332;SDS011;48624;49.812;8.562;2023-05-29T10:28:41;120.82;;;116.45;;
62332;SDS011;48624;49.812;8.562;2023-05-29T10:31:19;152.63;;;147.38;;
62332;SDS011;48624;49.812;8.562;2023-05-29T10:36:28;218.90;;;210.95;;
62332;SDS011;48624;49.812;8.562;2023-05-29T10:39:01;308.67;;;297.48;;
62332;SDS011;48624;49.812;8.562;2023-05-29T10:43:59;344.00;;;331.23;;
62332;SDS011;48624;49.812;8.562;2023-05-29T10:49:19;407.90;;;392.05;;
62332;SDS011;48624;49.812;8.562;2023-05-29T10:51:45;461.20;;;442.35;;
62332;SDS011;48624;49.812;8.562;2023-05-29T10:54:11;421.67;;;405.27;;
62332;SDS011;48624;49.812;8.562;2023-05-29T10:56:36;460.10;;;441.75;;
62332;SDS011;48624;49.812;8.562;2023-05-29T10:59:02;488.10;;;467.83;;
62332;SDS011;48624;49.812;8.562;2023-05-29T11:01:28;516.53;;;494.17;;
62332;SDS011;48624;49.812;8.562;2023-05-29T11:06:39;550.65;;;526.13;;
62332;SDS011;48624;49.812;8.562;2023-05-29T11:09:04;588.53;;;561.20;;
62332;SDS011;48624;49.812;8.562;2023-05-29T11:11:33;550.75;;;526.42;;
62332;SDS011;48624;49.812;8.562;2023-05-29T11:14:05;623.38;;;593.50;;
62332;SDS011;48624;49.812;8.562;2023-05-29T11:16:35;594.22;;;566.40;;
62332;SDS011;48624;49.812;8.562;2023-05-29T11:19:08;575.45;;;548.83;;
62332;SDS011;48624;49.812;8.562;2023-05-29T11:24:27;585.00;;;557.78;;
62332;SDS011;48624;49.812;8.562;2023-05-29T11:26:55;599.75;;;571.70;;
62332;SDS011;48624;49.812;8.562;2023-05-29T11:29:26;594.88;;;566.78;;
62332;SDS011;48624;49.812;8.562;2023-05-29T11:31:55;608.70;;;579.58;;
62332;SDS011;48624;49.812;8.562;2023-05-29T11:34:23;640.65;;;607.97;;
62332;SDS011;48624;49.812;8.562;2023-05-29T11:36:52;612.83;;;583.50;;
62332;SDS011;48624;49.812;8.562;2023-05-29T11:39:18;591.83;;;564.03;;
62332;SDS011;48624;49.812;8.562;2023-05-29T11:41:43;585.55;;;558.42;;
62332;SDS011;48624;49.812;8.562;2023-05-29T11:44:09;594.92;;;566.85;;
62332;SDS011;48624;49.812;8.562;2023-05-29T11:46:38;624.45;;;592.45;;
62332;SDS011;48624;49.812;8.562;2023-05-29T11:49:05;593.55;;;565.40;;
62332;SDS011;48624;49.812;8.562;2023-05-29T11:51:30;617.40;;;587.72;;
62332;SDS011;48624;49.812;8.562;2023-05-29T11:53:56;629.92;;;599.42;;
62332;SDS011;48624;49.812;8.562;2023-05-29T11:56:27;583.78;;;556.70;;
62332;SDS011;48624;49.812;8.562;2023-05-29T11:58:54;586.85;;;559.45;;
62332;SDS011;48624;49.812;8.562;2023-05-29T12:01:22;602.08;;;573.53;;
62332;SDS011;48624;49.812;8.562;2023-05-29T12:03:48;592.67;;;565.05;;
62332;SDS011;48624;49.812;8.562;2023-05-29T12:06:14;475.60;;;456.27;;
62332;SDS011;48624;49.812;8.562;2023-05-29T12:08:40;508.77;;;487.33;;
62332;SDS011;48624;49.812;8.562;2023-05-29T12:11:06;463.10;;;444.17;;
62332;SDS011;48624;49.812;8.562;2023-05-29T12:13:31;596.22;;;567.85;;
62332;SDS011;48624;49.812;8.562;2023-05-29T12:15:59;543.97;;;519.97;;
62332;SDS011;48624;49.812;8.562;2023-05-29T12:18:27;378.27;;;364.10;;
62332;SDS011;48624;49.812;8.562;2023-05-29T12:21:00;378.40;;;364.27;;
62332;SDS011;48624;49.812;8.562;2023-05-29T12:23:27;343.60;;;331.00;;
62332;SDS011;48624;49.812;8.562;2023-05-29T12:25:53;343.52;;;330.65;;
62332;SDS011;48624;49.812;8.562;2023-05-29T12:28:19;337.98;;;325.38;;
62332;SDS011;48624;49.812;8.562;2023-05-29T12:30:46;316.23;;;304.65;;
62332;SDS011;48624;49.812;8.562;2023-05-29T12:33:24;344.25;;;331.65;;
62332;SDS011;48624;49.812;8.562;2023-05-29T12:35:52;352.30;;;339.42;;
62332;SDS011;48624;49.812;8.562;2023-05-29T12:38:18;325.05;;;312.92;;
62332;SDS011;48624;49.812;8.562;2023-05-29T12:40:47;207.88;;;200.45;;
62332;SDS011;48624;49.812;8.562;2023-05-29T12:43:13;163.52;;;157.60;;
62332;SDS011;48624;49.812;8.562;2023-05-29T12:45:40;179.00;;;172.48;;
62332;SDS011;48624;49.812;8.562;2023-05-29T12:48:05;236.70;;;228.23;;
62332;SDS011;48624;49.812;8.562;2023-05-29T12:50:35;237.93;;;229.40;;
62332;SDS011;48624;49.812;8.562;2023-05-29T12:53:04;331.70;;;319.38;;
62332;SDS011;48624;49.812;8.562;2023-05-29T12:55:37;377.13;;;362.58;;
62332;SDS011;48624;49.812;8.562;2023-05-29T12:58:04;497.08;;;475.83;;
62332;SDS011;48624;49.812;8.562;2023-05-29T13:00:31;550.83;;;526.10;;
62332;SDS011;48624;49.812;8.562;2023-05-29T13:02:58;577.53;;;550.97;;
62332;SDS011;48624;49.812;8.562;2023-05-29T13:05:24;639.08;;;607.42;;
62332;SDS011;48624;49.812;8.562;2023-05-29T13:07:49;640.00;;;608.53;;
62332;SDS011;48624;49.812;8.562;2023-05-29T13:10:16;642.00;;;609.88;;
62332;SDS011;48624;49.812;8.562;2023-05-29T13:12:42;642.17;;;609.65;;
62332;SDS011;48624;49.812;8.562;2023-05-29T13:15:09;646.08;;;613.65;;
62332;SDS011;48624;49.812;8.562;2023-05-29T13:17:35;631.63;;;600.10;;
62332;SDS011;48624;49.812;8.562;2023-05-29T13:20:00;638.05;;;606.20;;
62332;SDS011;48624;49.812;8.562;2023-05-29T13:22:26;639.28;;;607.13;;
62332;SDS011;48624;49.812;8.562;2023-05-29T13:24:56;605.10;;;575.78;;
62332;SDS011;48624;49.812;8.562;2023-05-29T13:27:22;610.47;;;580.42;;
62332;SDS011;48624;49.812;8.562;2023-05-29T13:29:48;618.47;;;588.03;;
62332;SDS011;48624;49.812;8.562;2023-05-29T13:32:14;626.08;;;594.78;;
62332;SDS011;48624;49.812;8.562;2023-05-29T13:34:39;627.65;;;596.13;;
62332;SDS011;48624;49.812;8.562;2023-05-29T13:37:04;627.83;;;596.53;;
62332;SDS011;48624;49.812;8.562;2023-05-29T13:39:30;629.58;;;597.55;;
62332;SDS011;48624;49.812;8.562;2023-05-29T13:41:55;609.70;;;579.58;;
62332;SDS011;48624;49.812;8.562;2023-05-29T13:44:20;622.25;;;591.35;;
62332;SDS011;48624;49.812;8.562;2023-05-29T13:46:46;622.45;;;591.50;;
62332;SDS011;48624;49.812;8.562;2023-05-29T13:49:11;596.88;;;567.65;;
62332;SDS011;48624;49.812;8.562;2023-05-29T13:51:36;599.35;;;570.22;;
62332;SDS011;48624;49.812;8.562;2023-05-29T13:54:02;599.72;;;570.03;;
62332;SDS011;48624;49.812;8.562;2023-05-29T13:56:28;580.42;;;552.17;;
62332;SDS011;48624;49.812;8.562;2023-05-29T13:58:54;585.03;;;556.42;;
62332;SDS011;48624;49.812;8.562;2023-05-29T14:01:19;578.38;;;550.13;;
62332;SDS011;48624;49.812;8.562;2023-05-29T14:03:45;589.00;;;560.10;;
62332;SDS011;48624;49.812;8.562;2023-05-29T14:06:11;572.10;;;544.38;;
62332;SDS011;48624;49.812;8.562;2023-05-29T14:08:36;575.85;;;548.08;;
62332;SDS011;48624;49.812;8.562;2023-05-29T14:11:02;575.85;;;548.13;;
62332;SDS011;48624;49.812;8.562;2023-05-29T14:13:27;575.80;;;548.00;;
62332;SDS011;48624;49.812;8.562;2023-05-29T14:15:53;584.95;;;556.65;;
62332;SDS011;48624;49.812;8.562;2023-05-29T14:18:21;596.33;;;567.13;;
62332;SDS011;48624;49.812;8.562;2023-05-29T14:20:46;579.15;;;551.03;;
62332;SDS011;48624;49.812;8.562;2023-05-29T14:23:13;586.35;;;557.90;;
62332;SDS011;48624;49.812;8.562;2023-05-29T14:25:40;604.10;;;574.08;;
62332;SDS011;48624;49.812;8.562;2023-05-29T14:28:06;611.85;;;581.60;;